Details From PAGY - Skagway
To PASI - Sitka Rocky Gutierrez
Flight Number -
Tags Generated
Created
Modified
Stats Distance 144 nm / 267 km
Max Altitude 0 ft / 0 m
Waypoints 2
Social Downloads 2
Likes 0
Share VATSIM

Download

Looking for another format? Having issues loading an existing format? Contact us
Advertisement - Login to hide

Notes

Generated

Route

PAGY PASI

ID Type Via Altitude Latitude Longitude Leg Dist Tot Dist Heading (true) Name
O PAGY APT - 0 ft / 0 m 59.45657˚ -135.32229˚ - 0 nm - SKAGWAY
O PASI APT - 0 ft / 0 m 57.05347˚ -135.37303˚ 144 nm 144 nm 181° / 181° -

Altitude Profile

Advertisement - Login to hide

PAGY

Details ICAO PAGY (SGY)
Name SKAGWAY
Region USA (Alaska)
Timezone America/Juneau (UTC-9.0)
Stats Elevation 44 ft / 13 m (AMSL)
Location 59.460062° -135.315661°
Runways 1
Magnetic Variation 19.351° E

METAR

PAGY 120453Z AUTO 00000KT 3SM -RA BR BKN005 OVC011 04/03 A2999 RMK SLP155 P0002 T00440033 TSNO $ VIA AUTODIAL

Decode

TAF

PAGY 120304Z 1203/1224 21005KT P6SM VCSH SCT013 OVC035 TEMPO 1203/1206 VRB05KT 5SM -RA BR OVC013 FM120600 VRB03KT P6SM -RA SCT015 BKN030 OVC050 FM121200 21003KT 6SM -RA BR SCT015 BKN030 OVC050 FM121800 21017G26KT P6SM -RA SCT015 BKN030 OVC050 AMD LTD TO CLD VIS AND WIND

Decode

Departure Runways

ID Width Length Bearing (true) Bearing (mag) Surface Threshold Offset Overrun Length
02 75 ft / 23 m 3,542 ft / 1,080 m 43.94° 24.59° Asphalt 0 ft / 0 m 299 ft / 91 m
20 75 ft / 23 m 3,542 ft / 1,080 m 223.95° 204.60° Asphalt 0 ft / 0 m 299 ft / 91 m

PASI

Details ICAO PASI (SIT)
Name SITKA ROCKY GUTIERREZ
Region USA (Alaska)
Timezone America/Juneau (UTC-9.0)
Stats Elevation 21 ft / 6 m (AMSL)
Location 57.047128° -135.361597°
Runways 1
Magnetic Variation 18.753° E

METAR

PASI 120453Z 00000KT 10SM BKN085 BKN100 07/07 A2985

Decode

TAF

TAF AMD PASI 120324Z 1203/1224 VRB05KT P6SM -RA SCT040 OVC050 TEMPO 1203/1206 34005KT 4SM RA BR BKN030 OVC050 FM120800 12012G20KT 6SM -RA BR BKN020 OVC030 WS020/16035KT

Decode

Destination Runways

ID Width Length Bearing (true) Bearing (mag) Surface Threshold Offset Overrun Length
11 150 ft / 46 m 6,485 ft / 1,977 m 135.57° 116.82° Asphalt 0 ft / 0 m 0 ft / 0 m
29 150 ft / 46 m 6,485 ft / 1,977 m 315.59° 296.84° Asphalt 0 ft / 0 m 0 ft / 0 m

Approach Navaids

Runway Type Ident Frequency Range Bearing (true) Bearing (mag) Slope Elevation
11 Localiser ISIT 108.90 MHz 18 nm / 33 km 143.51° 124.75° - 15 ft / 5 m (AMSL)
11 DME ISIT 108.90 MHz 18 nm / 33 km - - - 34 ft / 10 m (AMSL)